Time;durP1;ratioP1;P1;durP2;ratioP2;P2;SDS_P1;SDS_P2;PMS_P1;PMS_P2;Temp;Humidity;BMP_temperature;BMP_pressure;BME280_temperature;BME280_humidity;BME280_pressure;Samples;Min_cycle;Max_cycle;Signal;HPM_P1;HPM_P2
2022/03/02 00:02:13;;;;;;;0.00;0.00;;;;;21.30;100453.00;;;;4855994;29;20068;-80
2022/03/02 00:04:43;;;;;;;0.45;0.45;;;;;21.40;100465.00;;;;4855740;29;20102;-79
2022/03/02 00:07:12;;;;;;;0.00;0.00;;;;;21.40;100470.00;;;;4856078;29;20049;-80
2022/03/02 00:09:42;;;;;;;0.00;0.00;;;;;21.40;100461.00;;;;4859357;29;20508;-79
2022/03/02 00:12:12;;;;;;;0.00;0.00;;;;;21.40;100464.00;;;;4874202;29;20044;-80
2022/03/02 00:14:41;;;;;;;0.00;0.00;;;;;21.50;100474.00;;;;4871970;29;20057;-80
2022/03/02 00:17:11;;;;;;;0.00;0.00;;;;;21.50;100483.00;;;;4873480;29;20052;-80
2022/03/02 00:19:41;;;;;;;0.00;0.00;;;;;21.50;100453.00;;;;4874251;29;20056;-80
2022/03/02 00:22:16;;;;;;;0.00;0.00;;;;;21.60;100471.00;;;;4873096;29;20044;-83
2022/03/02 00:24:51;;;;;;;0.00;0.00;;;;;21.60;100465.00;;;;4874037;29;20041;-80
2022/03/02 00:27:25;;;;;;;0.00;0.00;;;;;21.60;100470.00;;;;4872833;29;20453;-79
2022/03/02 00:29:57;;;;;;;0.00;0.00;;;;;21.60;100483.00;;;;4873872;29;20615;-80
2022/03/02 00:32:33;;;;;;;0.00;0.00;;;;;21.60;100453.00;;;;4856834;29;20144;-80
2022/03/02 00:35:05;;;;;;;0.00;0.00;;;;;21.60;100472.00;;;;4873840;29;20175;-79
2022/03/02 00:37:41;;;;;;;0.00;0.00;;;;;21.50;100442.00;;;;4873272;29;20144;-79
2022/03/02 00:40:11;;;;;;;0.00;0.00;;;;;21.50;100468.00;;;;4872746;29;20101;-80
2022/03/02 00:42:41;;;;;;;0.00;0.00;;;;;21.60;100475.00;;;;4873312;29;20048;-78
2022/03/02 00:45:11;;;;;;;0.00;0.00;;;;;21.60;100476.00;;;;4873173;29;20056;-77
2022/03/02 00:47:41;;;;;;;0.00;0.00;;;;;21.60;100464.00;;;;4873608;29;20072;-77
2022/03/02 00:50:11;;;;;;;0.00;0.00;;;;;21.60;100465.00;;;;4873524;29;20057;-78
2022/03/02 00:52:44;;;;;;;0.00;0.00;;;;;21.60;100459.00;;;;4873481;29;20607;-78
2022/03/02 00:55:14;;;;;;;0.00;0.00;;;;;21.60;100456.00;;;;4873831;29;20485;-78
2022/03/02 00:57:43;;;;;;;0.00;0.00;;;;;21.60;100470.00;;;;4873139;29;20976;-80
2022/03/02 01:00:13;;;;;;;3.42;0.93;;;;;21.50;100464.00;;;;4873340;29;20045;-79
2022/03/02 01:02:43;;;;;;;1.08;0.65;;;;;21.60;100451.00;;;;4872911;29;20064;-80
2022/03/02 01:05:13;;;;;;;0.00;0.00;;;;;21.50;100442.00;;;;4872739;29;20456;-80
2022/03/02 01:07:42;;;;;;;0.00;0.00;;;;;21.50;100456.00;;;;4873373;29;20049;-80
2022/03/02 01:10:12;;;;;;;0.00;0.00;;;;;21.50;100461.00;;;;4873193;29;20481;-79
2022/03/02 01:12:45;;;;;;;2.40;0.57;;;;;21.60;100454.00;;;;4853623;29;20053;-80
2022/03/02 01:15:18;;;;;;;0.00;0.00;;;;;21.50;100450.00;;;;4871289;29;20421;-78
2022/03/02 01:17:48;;;;;;;0.00;0.00;;;;;21.50;100449.00;;;;4872706;29;21001;-78
2022/03/02 01:20:17;;;;;;;0.00;0.00;;;;;21.40;100454.00;;;;4872195;29;20045;-79
2022/03/02 01:22:50;;;;;;;0.00;0.00;;;;;21.30;100466.00;;;;4872752;29;20544;-79
2022/03/02 01:25:20;;;;;;;0.00;0.00;;;;;21.30;100466.00;;;;4854781;29;20535;-79
2022/03/02 01:27:49;;;;;;;0.00;0.00;;;;;21.20;100450.00;;;;4872601;29;20424;-80
2022/03/02 01:30:20;;;;;;;0.00;0.00;;;;;21.10;100451.00;;;;4873000;29;20056;-79
2022/03/02 01:32:50;;;;;;;0.00;0.00;;;;;21.00;100472.00;;;;4873152;29;20516;-79
2022/03/02 01:35:20;;;;;;;0.00;0.00;;;;;20.90;100459.00;;;;4872679;29;20052;-80
2022/03/02 01:37:50;;;;;;;0.00;0.00;;;;;20.70;100457.00;;;;4873097;29;20064;-79
2022/03/02 01:40:20;;;;;;;0.00;0.00;;;;;20.60;100468.00;;;;4872863;29;20462;-79
2022/03/02 01:42:50;;;;;;;0.00;0.00;;;;;20.50;100450.00;;;;4872778;29;20044;-79
2022/03/02 01:45:21;;;;;;;0.00;0.00;;;;;20.40;100448.00;;;;4872384;29;20047;-79
2022/03/02 01:47:51;;;;;;;0.00;0.00;;;;;20.40;100451.00;;;;4872792;29;20527;-78
2022/03/02 01:50:20;;;;;;;0.00;0.00;;;;;20.40;100446.00;;;;4873284;29;20065;-77
2022/03/02 01:52:53;;;;;;;0.00;0.00;;;;;20.40;100449.00;;;;4872693;29;20113;-79
2022/03/02 01:55:23;;;;;;;0.00;0.00;;;;;20.40;100453.00;;;;4854337;29;20054;-81
2022/03/02 01:57:53;;;;;;;0.00;0.00;;;;;20.40;100451.00;;;;4862821;29;20049;-80
2022/03/02 02:00:24;;;;;;;0.00;0.00;;;;;20.40;100450.00;;;;4843396;29;20509;-78
2022/03/02 02:02:53;;;;;;;;;;;;;20.50;100444.00;;;;4863676;29;20087;-79
2022/03/02 02:05:23;;;;;;;0.00;0.00;;;;;20.60;100447.00;;;;4863171;29;19976;-80
2022/03/02 02:07:53;;;;;;;0.00;0.00;;;;;20.80;100435.00;;;;4862074;29;20052;-79
2022/03/02 02:10:22;;;;;;;0.00;0.00;;;;;20.80;100446.00;;;;4861051;29;20665;-80
2022/03/02 02:12:52;;;;;;;0.00;0.00;;;;;20.70;100432.00;;;;4864434;29;20045;-80
2022/03/02 02:15:23;;;;;;;0.00;0.00;;;;;20.60;100425.00;;;;4862223;29;20045;-79
2022/03/02 02:17:52;;;;;;;0.00;0.00;;;;;20.60;100416.00;;;;4855534;29;20052;-78
2022/03/02 02:20:23;;;;;;;0.00;0.00;;;;;20.70;100409.00;;;;4854685;29;20049;-79
2022/03/02 02:22:53;;;;;;;0.00;0.00;;;;;20.70;100426.00;;;;4861316;29;20057;-79
2022/03/02 02:25:22;;;;;;;0.00;0.00;;;;;20.70;100422.00;;;;4862334;29;20430;-79
2022/03/02 02:27:52;;;;;;;0.00;0.00;;;;;20.70;100434.00;;;;4863552;29;20040;-78
2022/03/02 02:30:23;;;;;;;0.00;0.00;;;;;20.70;100419.00;;;;4863361;29;20044;-79
2022/03/02 02:32:52;;;;;;;0.00;0.00;;;;;20.60;100433.00;;;;4834077;29;20060;-79
2022/03/02 02:35:22;;;;;;;0.00;0.00;;;;;20.60;100426.00;;;;4851830;29;20800;-79
2022/03/02 02:37:52;;;;;;;0.00;0.00;;;;;20.50;100428.00;;;;4853301;29;20580;-78
2022/03/02 02:40:22;;;;;;;0.00;0.00;;;;;20.50;100439.00;;;;4856886;29;20524;-79
2022/03/02 02:42:52;;;;;;;0.00;0.00;;;;;20.40;100439.00;;;;4857738;29;20045;-79
2022/03/02 02:45:24;;;;;;;0.00;0.00;;;;;20.40;100412.00;;;;4857384;29;20080;-79
2022/03/02 02:47:55;;;;;;;0.00;0.00;;;;;20.40;100423.00;;;;4837161;29;20069;-79
2022/03/02 02:50:33;;;;;;;0.00;0.00;;;;;20.50;100419.00;;;;4856375;29;20057;-79
2022/03/02 02:53:09;;;;;;;0.00;0.00;;;;;20.60;100393.00;;;;4837051;29;20085;-79
2022/03/02 02:55:41;;;;;;;0.00;0.00;;;;;20.70;100428.00;;;;4850215;29;20057;-78
2022/03/02 02:58:12;;;;;;;0.00;0.00;;;;;20.60;100423.00;;;;4857114;29;20049;-81
2022/03/02 03:00:44;;;;;;;0.00;0.00;;;;;20.50;100441.00;;;;4856977;29;20049;-79
2022/03/02 03:03:18;;;;;;;0.00;0.00;;;;;20.50;100446.00;;;;4857302;29;20046;-79
2022/03/02 03:05:48;;;;;;;0.00;0.00;;;;;20.40;100441.00;;;;4857049;29;20093;-78
2022/03/02 03:08:21;;;;;;;0.00;0.00;;;;;20.40;100412.00;;;;4857007;29;20073;-79
2022/03/02 03:10:51;;;;;;;0.00;0.00;;;;;20.40;100443.00;;;;4837495;29;20049;-78
2022/03/02 03:13:24;;;;;;;0.00;0.00;;;;;20.30;100416.00;;;;4855411;29;20424;-79
2022/03/02 03:15:54;;;;;;;0.00;0.00;;;;;20.30;100403.00;;;;4857120;29;20054;-80
2022/03/02 03:18:24;;;;;;;0.00;0.00;;;;;20.30;100399.00;;;;4856587;29;20056;-79
2022/03/02 03:21:01;;;;;;;0.00;0.00;;;;;20.30;100406.00;;;;4855288;29;20064;-78
2022/03/02 03:23:34;;;;;;;0.00;0.00;;;;;20.30;100410.00;;;;4856513;29;20072;-79
2022/03/02 03:26:04;;;;;;;0.00;0.00;;;;;20.30;100405.00;;;;4856937;29;20052;-79
2022/03/02 03:28:33;;;;;;;0.00;0.00;;;;;20.30;100434.00;;;;4849368;29;20150;-79
2022/03/02 03:31:03;;;;;;;0.00;0.00;;;;;20.40;100425.00;;;;4857476;29;20045;-79
2022/03/02 03:33:33;;;;;;;0.00;0.00;;;;;20.30;100419.00;;;;4855888;29;20176;-79
2022/03/02 03:36:03;;;;;;;0.00;0.00;;;;;20.30;100405.00;;;;4855475;29;20059;-79
2022/03/02 03:38:32;;;;;;;0.00;0.00;;;;;20.40;100411.00;;;;4839728;29;20045;-78
2022/03/02 03:41:02;;;;;;;0.00;0.00;;;;;20.40;100383.00;;;;4837045;29;20042;-79
2022/03/02 03:43:33;;;;;;;0.00;0.00;;;;;20.50;100411.00;;;;4856083;29;20501;-79
2022/03/02 03:46:03;;;;;;;0.00;0.00;;;;;20.60;100406.00;;;;4856389;29;20065;-79
2022/03/02 03:48:33;;;;;;;0.00;0.00;;;;;20.60;100417.00;;;;4856083;29;20054;-79
2022/03/02 03:51:03;;;;;;;0.00;0.00;;;;;20.70;100403.00;;;;4857240;29;20057;-79
2022/03/02 03:53:33;;;;;;;0.00;0.00;;;;;20.80;100419.00;;;;4848721;29;20057;-79
2022/03/02 03:56:03;;;;;;;0.00;0.00;;;;;20.80;100418.00;;;;4855637;29;20060;-79
2022/03/02 03:58:32;;;;;;;0.00;0.00;;;;;20.90;100407.00;;;;4856081;29;20136;-79
2022/03/02 04:01:02;;;;;;;0.00;0.00;;;;;20.90;100409.00;;;;4855376;29;20050;-79
2022/03/02 04:03:49;;;;;;;0.00;0.00;;;;;20.80;100410.00;;;;4855980;29;20518;-79
2022/03/02 04:06:19;;;;;;;0.15;0.15;;;;;20.70;100413.00;;;;4855672;29;20569;-79
2022/03/02 04:08:49;;;;;;;0.00;0.00;;;;;20.70;100407.00;;;;4856285;29;20050;-79
2022/03/02 04:11:18;;;;;;;0.00;0.00;;;;;20.60;100408.00;;;;4855630;29;20046;-79
2022/03/02 04:13:48;;;;;;;0.00;0.00;;;;;20.60;100412.00;;;;4856477;29;20413;-79
2022/03/02 04:16:17;;;;;;;0.00;0.00;;;;;20.50;100430.00;;;;4837487;29;20060;-78
2022/03/02 04:18:47;;;;;;;0.00;0.00;;;;;20.50;100418.00;;;;4856094;29;20037;-79
2022/03/02 04:21:16;;;;;;;0.00;0.00;;;;;20.50;100435.00;;;;4855826;29;20056;-80
2022/03/02 04:23:46;;;;;;;0.00;0.00;;;;;20.50;100438.00;;;;4855236;29;20109;-80
2022/03/02 04:26:15;;;;;;;0.00;0.00;;;;;20.50;100418.00;;;;4855220;29;20127;-79
2022/03/02 04:28:45;;;;;;;0.00;0.00;;;;;20.40;100435.00;;;;4855299;29;20060;-79
2022/03/02 04:31:15;;;;;;;0.00;0.00;;;;;20.50;100425.00;;;;4855361;29;20045;-79
2022/03/02 04:33:44;;;;;;;0.00;0.00;;;;;20.40;100430.00;;;;4855280;29;20049;-79
2022/03/02 04:36:14;;;;;;;0.00;0.00;;;;;20.40;100407.00;;;;4836604;29;20070;-80
2022/03/02 04:38:43;;;;;;;0.00;0.00;;;;;20.40;100410.00;;;;4855341;29;20540;-79
2022/03/02 04:41:13;;;;;;;0.00;0.00;;;;;20.40;100403.00;;;;4835616;29;20114;-79
2022/03/02 04:43:43;;;;;;;0.00;0.00;;;;;20.40;100415.00;;;;4855203;29;20033;-79
2022/03/02 04:46:12;;;;;;;0.00;0.00;;;;;20.30;100388.00;;;;4855569;29;20060;-79
2022/03/02 04:48:45;;;;;;;0.00;0.00;;;;;20.30;100401.00;;;;4854942;29;20077;-79
2022/03/02 04:51:15;;;;;;;0.00;0.00;;;;;20.30;100403.00;;;;4854961;29;20064;-79
2022/03/02 04:53:46;;;;;;;0.00;0.00;;;;;20.20;100384.00;;;;4835966;29;20430;-79
2022/03/02 04:56:16;;;;;;;0.00;0.00;;;;;20.30;100377.00;;;;4836162;29;20073;-80
2022/03/02 04:58:46;;;;;;;0.00;0.00;;;;;20.30;100364.00;;;;4855217;29;20101;-79
2022/03/02 05:01:15;;;;;;;0.00;0.00;;;;;20.20;100361.00;;;;4854599;29;20053;-79
2022/03/02 05:03:47;;;;;;;0.00;0.00;;;;;20.30;100367.00;;;;4854940;29;20045;-79
2022/03/02 05:06:17;;;;;;;0.00;0.00;;;;;20.40;100354.00;;;;4854812;29;20706;-78
2022/03/02 05:08:46;;;;;;;0.00;0.00;;;;;20.50;100368.00;;;;4854873;29;20053;-79
2022/03/02 05:11:16;;;;;;;0.00;0.00;;;;;20.50;100370.00;;;;4854222;29;20469;-79
2022/03/02 05:13:45;;;;;;;0.00;0.00;;;;;20.50;100355.00;;;;4854310;29;20055;-79
2022/03/02 05:16:15;;;;;;;0.00;0.00;;;;;20.50;100349.00;;;;4854968;29;20417;-79
2022/03/02 05:18:44;;;;;;;0.00;0.00;;;;;20.50;100337.00;;;;4854929;29;20469;-79
2022/03/02 05:21:15;;;;;;;0.00;0.00;;;;;20.40;100377.00;;;;4855005;29;20053;-79
2022/03/02 05:23:51;;;;;;;0.00;0.00;;;;;20.40;100377.00;;;;4855240;29;20037;-79
2022/03/02 05:26:20;;;;;;;0.00;0.00;;;;;20.40;100381.00;;;;4854339;29;20037;-79
2022/03/02 05:28:50;;;;;;;0.00;0.00;;;;;20.40;100371.00;;;;4854538;29;20060;-79
2022/03/02 05:31:23;;;;;;;0.00;0.00;;;;;20.50;100356.00;;;;4854522;29;20090;-79
2022/03/02 05:33:53;;;;;;;0.00;0.00;;;;;20.50;100353.00;;;;4854412;29;20073;-79
2022/03/02 05:36:28;;;;;;;0.00;0.00;;;;;20.60;100342.00;;;;4854105;29;20140;-78
2022/03/02 05:39:00;;;;;;;0.00;0.00;;;;;20.60;100318.00;;;;4855152;29;20093;-79
2022/03/02 05:41:33;;;;;;;0.00;0.00;;;;;20.60;100344.00;;;;4834995;29;20077;-79
2022/03/02 05:44:07;;;;;;;0.00;0.00;;;;;20.60;100330.00;;;;4834812;29;20518;-80
2022/03/02 05:46:38;;;;;;;0.00;0.00;;;;;20.60;100342.00;;;;4847847;29;20050;-79
2022/03/02 05:49:12;;;;;;;0.00;0.00;;;;;20.60;100350.00;;;;4854424;29;20080;-80
2022/03/02 05:51:43;;;;;;;0.00;0.00;;;;;20.60;100331.00;;;;4835071;29;20110;-79
2022/03/02 05:54:13;;;;;;;0.00;0.00;;;;;20.60;100342.00;;;;4851980;29;20080;-79
2022/03/02 05:56:42;;;;;;;0.00;0.00;;;;;20.50;100330.00;;;;4854732;29;20164;-78
2022/03/02 05:59:14;;;;;;;0.00;0.00;;;;;20.50;100317.00;;;;4854421;29;20076;-79
2022/03/02 06:01:44;;;;;;;0.00;0.00;;;;;20.50;100318.00;;;;4833677;29;20447;-79
2022/03/02 06:04:14;;;;;;;0.00;0.00;;;;;20.50;100295.00;;;;4834914;29;20058;-79
2022/03/02 06:06:46;;;;;;;0.00;0.00;;;;;20.50;100293.00;;;;4854521;29;20570;-79
2022/03/02 06:09:16;;;;;;;0.00;0.00;;;;;20.50;100288.00;;;;4854816;29;20061;-79
2022/03/02 06:11:46;;;;;;;0.00;0.00;;;;;20.50;100305.00;;;;4854201;29;20053;-79
2022/03/02 06:14:16;;;;;;;0.00;0.00;;;;;20.60;100324.00;;;;4855625;29;20476;-79
2022/03/02 06:16:45;;;;;;;0.00;0.00;;;;;20.60;100331.00;;;;4857788;29;20054;-79
2022/03/02 06:19:16;;;;;;;0.00;0.00;;;;;20.60;100324.00;;;;4857425;29;20102;-79
2022/03/02 06:21:47;;;;;;;0.00;0.00;;;;;20.60;100303.00;;;;4858231;29;20573;-79
2022/03/02 06:24:17;;;;;;;0.00;0.00;;;;;20.60;100308.00;;;;4857733;29;20045;-80
2022/03/02 06:26:47;;;;;;;0.00;0.00;;;;;20.60;100313.00;;;;4837842;29;20065;-79
2022/03/02 06:29:16;;;;;;;0.00;0.00;;;;;20.60;100313.00;;;;4855156;29;20120;-79
2022/03/02 06:31:45;;;;;;;0.00;0.00;;;;;20.60;100332.00;;;;4857274;29;20057;-79
2022/03/02 06:34:15;;;;;;;0.00;0.00;;;;;20.60;100313.00;;;;4857663;29;20509;-79
2022/03/02 06:36:49;;;;;;;0.00;0.00;;;;;20.60;100318.00;;;;4857134;29;20561;-78
2022/03/02 06:39:23;;;;;;;0.00;0.00;;;;;20.60;100320.00;;;;4857140;29;20053;-78
2022/03/02 06:42:01;;;;;;;0.00;0.00;;;;;20.60;100333.00;;;;4837706;29;20927;-78
2022/03/02 06:44:34;;;;;;;0.00;0.00;;;;;20.70;100314.00;;;;4857090;29;20513;-78
2022/03/02 06:47:12;;;;;;;0.00;0.00;;;;;20.70;100306.00;;;;4857661;29;20045;-78
2022/03/02 06:49:59;;;;;;;0.00;0.00;;;;;20.70;100319.00;;;;4837139;29;20057;-78
2022/03/02 06:52:44;;;;;;;0.00;0.00;;;;;20.70;100347.00;;;;4857042;29;20125;-78
2022/03/02 06:55:18;;;;;;;0.00;0.00;;;;;20.70;100322.00;;;;4838455;29;20783;-79
2022/03/02 06:58:00;;;;;;;0.00;0.00;;;;;20.70;100335.00;;;;4857808;29;20109;-79
2022/03/02 07:00:31;;;;;;;0.00;0.00;;;;;20.70;100316.00;;;;4857223;29;20421;-78
2022/03/02 07:03:03;;;;;;;0.00;0.00;;;;;20.70;100323.00;;;;4857238;29;20045;-79
2022/03/02 07:05:33;;;;;;;0.00;0.00;;;;;20.70;100344.00;;;;4857412;29;20132;-78
2022/03/02 07:08:04;;;;;;;0.00;0.00;;;;;20.70;100325.00;;;;4856702;29;20077;-78
2022/03/02 07:10:37;;;;;;;0.00;0.00;;;;;20.80;100322.00;;;;4856471;29;20056;-78
2022/03/02 07:13:09;;;;;;;0.00;0.00;;;;;20.80;100325.00;;;;4857106;29;20715;-79
2022/03/02 07:15:40;;;;;;;0.00;0.00;;;;;20.80;100300.00;;;;4856857;29;20054;-78
2022/03/02 07:18:09;;;;;;;0.00;0.00;;;;;20.80;100337.00;;;;4856691;29;20037;-77
2022/03/02 07:20:41;;;;;;;0.00;0.00;;;;;20.70;100314.00;;;;4857263;29;20046;-80
2022/03/02 07:23:18;;;;;;;0.00;0.00;;;;;20.70;100319.00;;;;4856255;29;20517;-77
2022/03/02 07:25:52;;;;;;;0.00;0.00;;;;;20.70;100295.00;;;;4856255;29;20060;-78
2022/03/02 07:28:22;;;;;;;0.00;0.00;;;;;20.70;100281.00;;;;4856961;29;20851;-79
2022/03/02 07:30:56;;;;;;;0.00;0.00;;;;;20.70;100304.00;;;;4856870;29;20140;-79
2022/03/02 07:33:27;;;;;;;0.00;0.00;;;;;20.70;100278.00;;;;4856715;29;20054;-79
2022/03/02 07:35:58;;;;;;;0.00;0.00;;;;;20.60;100290.00;;;;4856365;29;20084;-79
2022/03/02 07:38:28;;;;;;;0.00;0.00;;;;;20.60;100272.00;;;;4856030;29;20041;-79
2022/03/02 07:40:58;;;;;;;0.00;0.00;;;;;20.60;100282.00;;;;4856116;29;20098;-79
2022/03/02 07:43:29;;;;;;;0.00;0.00;;;;;20.60;100282.00;;;;4856566;29;20054;-78
2022/03/02 07:46:02;;;;;;;0.00;0.00;;;;;20.60;100283.00;;;;4856355;29;20060;-78
2022/03/02 07:48:32;;;;;;;0.00;0.00;;;;;20.60;100284.00;;;;4856261;29;20049;-78
2022/03/02 07:51:04;;;;;;;0.00;0.00;;;;;20.50;100265.00;;;;4856507;29;20052;-78
2022/03/02 07:53:47;;;;;;;0.00;0.00;;;;;20.50;100282.00;;;;4845464;29;20052;-78
2022/03/02 07:56:18;;;;;;;0.00;0.00;;;;;20.50;100301.00;;;;4833515;29;20061;-78
2022/03/02 07:58:49;;;;;;;0.00;0.00;;;;;20.50;100285.00;;;;4853363;29;20065;-78
2022/03/02 08:01:21;;;;;;;0.00;0.00;;;;;20.50;100282.00;;;;4855995;29;20049;-78
2022/03/02 08:03:52;;;;;;;0.00;0.00;;;;;20.60;100290.00;;;;4855978;29;20604;-79
2022/03/02 08:06:22;;;;;;;0.00;0.00;;;;;20.60;100270.00;;;;4855973;29;20054;-78
2022/03/02 08:08:52;;;;;;;0.00;0.00;;;;;20.60;100288.00;;;;4855657;29;20532;-79
2022/03/02 08:11:22;;;;;;;0.00;0.00;;;;;20.70;100270.00;;;;4838405;29;20911;-79
2022/03/02 08:13:52;;;;;;;0.00;0.00;;;;;20.60;100277.00;;;;4836108;29;20081;-79
2022/03/02 08:16:23;;;;;;;0.00;0.00;;;;;20.60;100261.00;;;;4854815;29;20061;-80
2022/03/02 08:18:52;;;;;;;0.00;0.00;;;;;20.60;100260.00;;;;4855422;29;20057;-80
2022/03/02 08:21:23;;;;;;;0.00;0.00;;;;;20.60;100228.00;;;;4855298;29;20102;-79
2022/03/02 08:24:02;;;;;;;0.00;0.00;;;;;20.60;100214.00;;;;4855440;29;20053;-79
2022/03/02 08:26:33;;;;;;;0.00;0.00;;;;;20.60;100203.00;;;;4855612;29;20076;-79
2022/03/02 08:29:10;;;;;;;0.00;0.00;;;;;20.60;100229.00;;;;4855571;29;20556;-79
2022/03/02 08:31:45;;;;;;;0.00;0.00;;;;;20.50;100235.00;;;;4835653;29;20088;-79
2022/03/02 08:34:15;;;;;;;0.00;0.00;;;;;20.50;100229.00;;;;4836655;29;20049;-80
2022/03/02 08:36:44;;;;;;;0.00;0.00;;;;;20.50;100233.00;;;;4854683;29;20061;-80
2022/03/02 08:39:14;;;;;;;0.00;0.00;;;;;20.50;100250.00;;;;4855447;29;20045;-79
2022/03/02 08:41:44;;;;;;;0.00;0.00;;;;;20.50;100264.00;;;;4855308;29;20084;-80
2022/03/02 08:44:16;;;;;;;0.00;0.00;;;;;20.50;100275.00;;;;4855281;29;20102;-79
2022/03/02 08:46:46;;;;;;;0.00;0.00;;;;;20.50;100266.00;;;;4855513;29;20069;-80
2022/03/02 08:49:20;;;;;;;0.00;0.00;;;;;20.60;100256.00;;;;4855360;29;20046;-79
2022/03/02 08:51:51;;;;;;;0.00;0.00;;;;;20.70;100277.00;;;;4856487;29;20045;-85
2022/03/02 08:54:22;;;;;;;0.00;0.00;;;;;20.70;100266.00;;;;4855960;29;20056;-84
2022/03/02 08:56:55;;;;;;;0.00;0.00;;;;;20.70;100267.00;;;;4835382;29;20069;-80
2022/03/02 08:59:28;;;;;;;0.00;0.00;;;;;20.70;100279.00;;;;4854694;29;20390;-80
2022/03/02 09:01:57;;;;;;;0.00;0.00;;;;;20.70;100257.00;;;;4855194;29;20045;-80
2022/03/02 09:04:30;;;;;;;0.00;0.00;;;;;20.70;100281.00;;;;4855411;29;20344;-84
2022/03/02 09:07:03;;;;;;;0.00;0.00;;;;;20.70;100280.00;;;;4855131;29;20500;-83
2022/03/02 09:09:33;;;;;;;0.00;0.00;;;;;20.80;100268.00;;;;4854964;29;20045;-85
2022/03/02 09:12:03;;;;;;;0.00;0.00;;;;;20.80;100254.00;;;;4855252;29;20067;-84
2022/03/02 09:14:33;;;;;;;0.00;0.00;;;;;20.90;100269.00;;;;4855561;29;20049;-84
2022/03/02 09:17:02;;;;;;;0.00;0.00;;;;;20.90;100266.00;;;;4855089;29;20057;-83
2022/03/02 09:19:32;;;;;;;0.00;0.00;;;;;20.80;100283.00;;;;4854883;29;20418;-83
2022/03/02 09:22:03;;;;;;;0.00;0.00;;;;;20.80;100266.00;;;;4855136;29;20060;-83
2022/03/02 09:24:33;;;;;;;0.00;0.00;;;;;20.80;100271.00;;;;4834857;29;20062;-80
2022/03/02 09:27:03;;;;;;;0.00;0.00;;;;;20.80;100278.00;;;;4851618;29;20049;-84
2022/03/02 09:29:38;;;;;;;0.00;0.00;;;;;20.80;100282.00;;;;4847287;29;20073;-83
2022/03/02 09:32:11;;;;;;;0.00;0.00;;;;;20.90;100262.00;;;;4854205;29;20053;-83
2022/03/02 09:34:48;;;;;;;0.00;0.00;;;;;20.90;100286.00;;;;4855024;29;20125;-84
2022/03/02 09:37:18;;;;;;;0.00;0.00;;;;;20.90;100264.00;;;;4836229;29;20085;-83
2022/03/02 09:39:50;;;;;;;0.00;0.00;;;;;20.90;100302.00;;;;4856096;29;20049;-81
2022/03/02 09:42:45;;;;;;;0.00;0.00;;;;;20.90;100307.00;;;;4855149;29;20044;-82
2022/03/02 09:45:20;;;;;;;0.00;0.00;;;;;20.90;100303.00;;;;4855422;29;20053;-83
2022/03/02 09:47:56;;;;;;;0.00;0.00;;;;;21.00;100299.00;;;;4858848;29;20053;-85
2022/03/02 09:50:33;;;;;;;0.00;0.00;;;;;21.00;100273.00;;;;4862326;29;20050;-84
2022/03/02 09:53:12;;;;;;;0.00;0.00;;;;;21.10;100284.00;;;;4858892;29;20045;-84
2022/03/02 09:55:44;;;;;;;0.00;0.00;;;;;21.20;100301.00;;;;4859003;29;20243;-84
2022/03/02 09:58:15;;;;;;;0.00;0.00;;;;;21.20;100298.00;;;;4839403;29;20046;-84
2022/03/02 10:00:48;;;;;;;0.00;0.00;;;;;21.20;100299.00;;;;4839280;29;20064;-84
2022/03/02 10:03:22;;;;;;;0.00;0.00;;;;;21.20;100309.00;;;;4839771;29;20518;-84
2022/03/02 10:06:01;;;;;;;0.00;0.00;;;;;21.30;100318.00;;;;4858658;29;20057;-87
2022/03/02 10:08:36;;;;;;;0.00;0.00;;;;;21.30;100325.00;;;;4840987;29;20065;-84
2022/03/02 10:11:06;;;;;;;0.00;0.00;;;;;21.30;100332.00;;;;4858449;29;20600;-83
2022/03/02 10:13:39;;;;;;;5.63;1.50;;;;;21.40;100336.00;;;;4850795;29;20057;-84
2022/03/02 10:16:11;;;;;;;0.13;0.10;;;;;21.40;100346.00;;;;4823468;29;20322;-83
2022/03/02 10:18:43;;;;;;;0.00;0.00;;;;;21.40;100340.00;;;;4839550;29;20057;-83
2022/03/02 10:21:12;;;;;;;0.00;0.00;;;;;21.50;100346.00;;;;4855251;29;20053;-84
2022/03/02 10:23:42;;;;;;;0.00;0.00;;;;;21.50;100343.00;;;;4858990;29;20049;-85
2022/03/02 10:26:23;;;;;;;0.00;0.00;;;;;21.60;100317.00;;;;4858069;29;20041;-81
2022/03/02 10:29:04;;;;;;;0.00;0.00;;;;;21.80;100269.00;;;;4857799;29;20621;-83
2022/03/02 10:31:58;;;;;;;0.00;0.00;;;;;22.10;100330.00;;;;4850397;29;20451;-84
2022/03/02 10:34:32;;;;;;;0.00;0.00;;;;;22.50;100330.00;;;;4856259;29;20129;-84
2022/03/02 10:37:19;;;;;;;0.00;0.00;;;;;22.80;100316.00;;;;4857232;29;20103;-84
2022/03/02 10:40:05;;;;;;;0.00;0.00;;;;;23.60;100322.00;;;;4857450;29;20053;-83
2022/03/02 10:42:41;;;;;;;0.00;0.00;;;;;23.20;100308.00;;;;4858192;29;20143;-84
2022/03/02 10:45:22;;;;;;;0.00;0.00;;;;;23.30;100313.00;;;;4857136;29;20140;-85
2022/03/02 10:48:32;;;;;;;0.00;0.00;;;;;23.60;100309.00;;;;4857836;29;20524;-87
2022/03/02 10:51:05;;;;;;;;;;;;;23.80;100304.00;;;;4761527;30;20483;-83
2022/03/02 10:53:38;;;;;;;0.00;0.00;;;;;27.40;100092.00;;;;4756846;30;19957;-82
2022/03/02 10:56:09;;;;;;;0.00;0.00;;;;;31.20;100126.00;;;;4816026;29;20097;-83
2022/03/02 10:58:39;;;;;;;0.00;0.00;;;;;29.50;100091.00;;;;4862869;29;20064;-84
2022/03/02 11:01:08;;;;;;;0.00;0.00;;;;;32.10;100097.00;;;;4874841;29;20045;-85
2022/03/02 11:03:38;;;;;;;0.00;0.00;;;;;32.10;100188.00;;;;4855058;29;20480;-87
2022/03/02 11:06:08;;;;;;;0.00;0.00;;;;;27.30;100261.00;;;;4872005;29;20056;-83
2022/03/02 11:08:38;;;;;;;0.10;0.10;;;;;26.20;100293.00;;;;4857734;29;20535;-80
2022/03/02 11:11:11;;;;;;;0.00;0.00;;;;;25.20;100300.00;;;;4876510;29;20101;-82
2022/03/02 11:13:43;;;;;;;0.00;0.00;;;;;25.10;100285.00;;;;4860278;29;20064;-80
2022/03/02 11:16:20;;;;;;;0.05;0.05;;;;;26.40;100228.00;;;;4873031;29;20077;-85
2022/03/02 11:18:52;;;;;;;0.00;0.00;;;;;30.30;100086.00;;;;4869940;29;20045;-86
2022/03/02 11:21:35;;;;;;;0.00;0.00;;;;;27.40;100288.00;;;;4875907;29;20556;-84
2022/03/02 11:24:06;;;;;;;0.00;0.00;;;;;27.80;100258.00;;;;4876060;29;20057;-81
2022/03/02 11:26:40;;;;;;;0.00;0.00;;;;;26.50;100280.00;;;;4873197;29;20087;-85
2022/03/02 11:29:18;;;;;;;0.00;0.00;;;;;28.50;100191.00;;;;4875438;29;20604;-85
2022/03/02 11:31:54;;;;;;;0.00;0.00;;;;;30.90;100215.00;;;;4875271;29;20060;-84
2022/03/02 11:34:30;;;;;;;0.22;0.20;;;;;29.20;100249.00;;;;4875459;29;20052;-82
2022/03/02 11:37:05;;;;;;;1.10;0.20;;;;;31.90;100101.00;;;;4875097;29;20060;-86
2022/03/02 11:39:43;;;;;;;0.00;0.00;;;;;34.40;100093.00;;;;4875000;29;20045;-84
2022/03/02 11:42:13;;;;;;;0.00;0.00;;;;;32.40;100229.00;;;;4875693;29;20069;-84
2022/03/02 11:44:44;;;;;;;0.00;0.00;;;;;28.40;100302.00;;;;4875031;29;20045;-86
2022/03/02 11:47:20;;;;;;;0.00;0.00;;;;;27.70;100296.00;;;;4855600;29;20113;-83
2022/03/02 11:49:53;;;;;;;0.00;0.00;;;;;28.50;100240.00;;;;4855058;29;20528;-84
2022/03/02 11:52:34;;;;;;;0.00;0.00;;;;;29.20;100288.00;;;;4873933;29;20531;-84
2022/03/02 11:55:19;;;;;;;0.00;0.00;;;;;27.60;100279.00;;;;4874795;29;20051;-85
2022/03/02 11:57:53;;;;;;;0.00;0.00;;;;;28.60;100300.00;;;;4855256;29;20061;-86
2022/03/02 12:00:26;;;;;;;0.00;0.00;;;;;28.30;100308.00;;;;4873889;29;20044;-83
2022/03/02 12:03:02;;;;;;;0.10;0.10;;;;;27.30;100347.00;;;;4855456;29;20061;-80
2022/03/02 12:05:34;;;;;;;0.43;0.25;;;;;26.20;100322.00;;;;4874222;29;20412;-84
2022/03/02 12:08:09;;;;;;;0.00;0.00;;;;;26.90;100290.00;;;;4874739;29;20428;-82
2022/03/02 12:10:54;;;;;;;0.75;0.50;;;;;28.30;100207.00;;;;4874155;29;20108;-84
2022/03/02 12:13:24;;;;;;;0.00;0.00;;;;;30.20;100312.00;;;;4874278;29;20037;-83
2022/03/02 12:15:56;;;;;;;0.00;0.00;;;;;29.60;100320.00;;;;4874783;29;20045;-83
2022/03/02 12:18:29;;;;;;;0.00;0.00;;;;;27.70;100325.00;;;;4875315;29;20052;-84
2022/03/02 12:20:59;;;;;;;0.00;0.00;;;;;30.00;100167.00;;;;4874464;29;20052;-83
2022/03/02 12:23:34;;;;;;;0.00;0.00;;;;;32.30;100184.00;;;;4874556;29;20598;-83
2022/03/02 12:26:08;;;;;;;0.00;0.00;;;;;32.80;100221.00;;;;4874564;29;20056;-82
2022/03/02 12:28:41;;;;;;;0.05;0.05;;;;;32.20;100212.00;;;;4874088;29;20113;-84
2022/03/02 12:31:14;;;;;;;0.00;0.00;;;;;30.30;100308.00;;;;4874496;29;20415;-84
2022/03/02 12:33:50;;;;;;;0.00;0.00;;;;;30.70;100299.00;;;;4854300;29;20052;-84